Time;durP1;ratioP1;P1;durP2;ratioP2;P2;SDS_P1;SDS_P2;PMS_P1;PMS_P2;Temp;Humidity;BMP_temperature;BMP_pressure;BME280_temperature;BME280_humidity;BME280_pressure;Samples;Min_cycle;Max_cycle;Signal;HPM_P1;HPM_P2
2023/07/31 06:14:50;;;;;;;601.50;558.47;;;;;;;;;;6198064;22;19934;-94
2023/07/31 06:17:22;;;;;;;540.25;501.95;;;;;;;;;;6170802;23;20339;-95
2023/07/31 06:23:07;;;;;;;487.10;454.38;;;;;;;;;;6149555;23;20008;-96
2023/07/31 06:25:36;;;;;;;586.88;546.03;;;;;;;;;;6169295;23;20060;-94
2023/07/31 06:28:03;;;;;;;569.53;529.72;;;;;;;;;;6165126;23;20500;-93
2023/07/31 06:30:41;;;;;;;561.90;522.90;;;;;;;;;;6161586;23;20008;-92
2023/07/31 06:33:07;;;;;;;523.08;488.00;;;;;;;;;;6162033;23;20015;-95
2023/07/31 06:35:54;;;;;;;517.00;481.00;;;;;;;;;;6187977;23;20011;-94
2023/07/31 06:38:22;;;;;;;438.52;409.77;;;;;;;;;;6161112;23;20041;-92
2023/07/31 06:40:49;;;;;;;401.92;375.33;;;;;;;;;;6161509;23;20016;-95
2023/07/31 06:43:15;;;;;;;375.20;351.17;;;;;;;;;;6162160;23;20024;-94
2023/07/31 06:49:16;;;;;;;347.35;325.17;;;;;;;;;;6134366;23;20117;-95
2023/07/31 06:59:58;;;;;;;;;;;;;;;;;;;;;
2023/07/31 07:10:54;;;;;;;547.72;510.48;;;;;;;;;;6210538;22;20025;-96
2023/07/31 07:13:20;;;;;;;557.78;519.58;;;;;;;;;;6194791;23;20000;-95
2023/07/31 07:15:50;;;;;;;577.47;537.83;;;;;;;;;;6192314;23;20008;-95
2023/07/31 07:18:28;;;;;;;588.20;547.38;;;;;;;;;;6193592;23;20096;-96
2023/07/31 07:20:58;;;;;;;607.15;564.83;;;;;;;;;;6190568;23;20032;-94
2023/07/31 07:23:24;;;;;;;643.33;598.22;;;;;;;;;;6193201;23;20050;-93
2023/07/31 07:25:51;;;;;;;635.28;589.45;;;;;;;;;;6191473;23;20441;-94
2023/07/31 07:28:17;;;;;;;642.90;597.58;;;;;;;;;;6198350;23;20001;-93
2023/07/31 07:30:44;;;;;;;618.15;574.78;;;;;;;;;;6213068;23;20008;-95
2023/07/31 07:33:11;;;;;;;531.67;494.70;;;;;;;;;;6198475;23;20043;-96
2023/07/31 07:35:37;;;;;;;540.58;503.38;;;;;;;;;;6194221;23;20000;-96
2023/07/31 07:38:03;;;;;;;478.73;446.02;;;;;;;;;;6191255;23;20335;-95
2023/07/31 07:40:30;;;;;;;489.58;455.48;;;;;;;;;;6192819;23;19997;-95
2023/07/31 07:43:00;;;;;;;467.90;436.65;;;;;;;;;;6195063;23;20008;-96
2023/07/31 07:45:29;;;;;;;432.20;404.15;;;;;;;;;;6190146;23;20382;-96
2023/07/31 07:47:56;;;;;;;458.00;427.65;;;;;;;;;;6219676;23;20104;-95
2023/07/31 07:50:25;;;;;;;441.63;413.17;;;;;;;;;;6194756;23;20449;-93
2023/07/31 07:52:52;;;;;;;499.42;465.90;;;;;;;;;;6196258;23;20036;-94
2023/07/31 07:55:18;;;;;;;493.60;461.05;;;;;;;;;;6192972;23;20005;-94
2023/07/31 07:57:54;;;;;;;550.42;513.53;;;;;;;;;;6217362;23;20439;-95
2023/07/31 08:00:23;;;;;;;564.05;525.72;;;;;;;;;;6192273;23;20001;-92
2023/07/31 08:06:13;;;;;;;610.88;568.67;;;;;;;;;;6220293;23;20062;-96
2023/07/31 08:08:39;;;;;;;625.65;582.33;;;;;;;;;;6216745;23;20028;-96
2023/07/31 08:11:13;;;;;;;644.53;594.70;;;;;;;;;;6196401;23;20100;-95
2023/07/31 08:31:59;;;;;;;130.65;123.07;;;;;;;;;;6208510;23;20031;-96
2023/07/31 08:34:25;;;;;;;307.75;288.60;;;;;;;;;;6192370;23;20005;-95
2023/07/31 08:36:54;;;;;;;353.70;331.35;;;;;;;;;;6197035;22;20004;-96
2023/07/31 08:43:06;;;;;;;;;;;;;;;;;;;;;
2023/07/31 08:45:52;;;;;;;;;;;;;;;;;;;;;
2023/07/31 08:56:33;;;;;;;393.10;367.80;;;;;;;;;;6200793;22;20017;-93
2023/07/31 09:01:58;;;;;;;458.50;428.58;;;;;;;;;;6216173;23;20108;-93
2023/07/31 09:09:40;;;;;;;514.75;480.33;;;;;;;;;;6205505;22;20036;-89
2023/07/31 09:12:07;;;;;;;518.30;483.13;;;;;;;;;;6192502;23;20086;-94
2023/07/31 09:32:11;;;;;;;572.13;532.78;;;;;;;;;;6200115;22;20458;-94
2023/07/31 10:00:59;;;;;;;610.90;568.38;;;;;;;;;;6209574;22;20019;-96
2023/07/31 10:03:26;;;;;;;603.90;561.60;;;;;;;;;;6172516;23;20021;-94
2023/07/31 10:26:38;;;;;;;633.60;589.20;;;;;;;;;;6194343;22;21242;-96
2023/07/31 10:36:06;;;;;;;;;;;;;;;;;;;;;
2023/07/31 10:38:41;;;;;;;638.97;594.78;;;;;;;;;;6226397;23;20051;-96
2023/07/31 10:41:31;;;;;;;629.05;584.80;;;;;;;;;;6201657;23;20009;-96
2023/07/31 10:52:28;;;;;;;627.92;584.22;;;;;;;;;;6221195;23;20020;-96
2023/07/31 11:01:34;;;;;;;617.83;575.05;;;;;;;;;;6208096;22;20037;-93
2023/07/31 11:06:40;;;;;;;628.45;584.85;;;;;;;;;;6215466;23;20541;-93
2023/07/31 11:09:13;;;;;;;580.25;540.08;;;;;;;;;;6196161;23;20005;-94
2023/07/31 11:11:47;;;;;;;614.10;571.08;;;;;;;;;;6195844;23;20008;-95
2023/07/31 11:14:13;;;;;;;603.13;561.63;;;;;;;;;;6191171;23;20087;-95
2023/07/31 11:59:16;;;;;;;193.85;182.05;;;;;;;;;;6221823;23;20012;-96
2023/07/31 12:01:43;;;;;;;193.57;181.88;;;;;;;;;;6192956;23;20008;-94
2023/07/31 12:07:33;;;;;;;204.65;192.63;;;;;;;;;;6225879;23;20011;-95
2023/07/31 12:09:58;;;;;;;181.02;169.68;;;;;;;;;;6217436;23;20430;-95
2023/07/31 12:13:05;;;;;;;257.63;241.20;;;;;;;;;;6191162;23;20424;-94
2023/07/31 12:15:58;;;;;;;212.82;199.88;;;;;;;;;;6166595;23;20024;-95
2023/07/31 12:21:37;;;;;;;234.43;220.45;;;;;;;;;;6174992;23;20006;31
2023/07/31 12:35:28;;;;;;;243.77;229.38;;;;;;;;;;6190083;23;20044;-94
2023/07/31 12:38:02;;;;;;;244.45;229.60;;;;;;;;;;6192649;23;20005;-93
2023/07/31 12:40:28;;;;;;;275.02;258.23;;;;;;;;;;6193091;23;20004;-93
2023/07/31 12:42:58;;;;;;;210.15;197.02;;;;;;;;;;6169950;23;20039;-94
2023/07/31 12:45:24;;;;;;;253.05;237.57;;;;;;;;;;6193974;23;20016;-94
2023/07/31 12:47:50;;;;;;;232.38;218.77;;;;;;;;;;6194436;23;20083;-96
2023/07/31 12:50:16;;;;;;;241.23;226.73;;;;;;;;;;6192456;23;20005;-93
2023/07/31 12:52:42;;;;;;;231.52;217.60;;;;;;;;;;6192530;23;20439;-95
2023/07/31 12:55:23;;;;;;;181.25;169.88;;;;;;;;;;6192463;23;20001;-93
2023/07/31 13:00:56;;;;;;;202.27;190.27;;;;;;;;;;6218587;23;20031;-94
2023/07/31 13:03:23;;;;;;;265.27;248.88;;;;;;;;;;6192834;23;20051;-93
2023/07/31 13:06:05;;;;;;;;;;;;;;;;;;;;;
2023/07/31 13:08:34;;;;;;;247.32;232.38;;;;;;;;;;6218850;23;20498;-95
2023/07/31 13:11:00;;;;;;;211.57;199.10;;;;;;;;;;6191622;23;20509;-96
2023/07/31 13:13:30;;;;;;;271.40;254.60;;;;;;;;;;6192243;23;20036;-94
2023/07/31 13:19:02;;;;;;;47.85;44.95;;;;;;;;;;6199341;23;20000;-95
2023/07/31 13:24:36;;;;;;;277.52;260.90;;;;;;;;;;6068392;23;20353;-94
2023/07/31 13:27:29;;;;;;;259.42;244.07;;;;;;;;;;6160642;23;20471;-93
2023/07/31 13:30:03;;;;;;;255.60;240.33;;;;;;;;;;6185206;23;20009;-94
2023/07/31 13:32:30;;;;;;;203.45;191.15;;;;;;;;;;6161354;23;20096;-95
2023/07/31 13:35:09;;;;;;;209.15;196.77;;;;;;;;;;6159187;23;20013;-96
2023/07/31 13:37:41;;;;;;;255.63;240.20;;;;;;;;;;6156517;23;20498;-96
2023/07/31 13:40:13;;;;;;;237.77;223.83;;;;;;;;;;6155792;23;20005;-95
2023/07/31 13:42:54;;;;;;;193.85;182.23;;;;;;;;;;6131449;23;20005;-93
2023/07/31 13:45:20;;;;;;;254.18;239.13;;;;;;;;;;6131069;23;20001;-92
2023/07/31 13:47:56;;;;;;;254.07;238.98;;;;;;;;;;6157981;23;20009;-95
2023/07/31 13:50:25;;;;;;;285.33;265.85;;;;;;;;;;6163409;23;20008;-94
2023/07/31 13:52:51;;;;;;;222.05;208.73;;;;;;;;;;6163300;23;20033;-93
2023/07/31 13:55:18;;;;;;;290.23;271.85;;;;;;;;;;6162388;23;20360;-95
2023/07/31 13:57:44;;;;;;;255.52;239.73;;;;;;;;;;6161901;23;20360;-95
2023/07/31 14:00:10;;;;;;;211.05;198.57;;;;;;;;;;6161529;23;20009;-93
2023/07/31 14:02:36;;;;;;;253.30;237.85;;;;;;;;;;6161506;23;20415;-95
2023/07/31 14:05:02;;;;;;;249.23;234.32;;;;;;;;;;6162891;23;20009;-93
2023/07/31 14:07:29;;;;;;;221.07;207.60;;;;;;;;;;6161927;23;20005;-95
2023/07/31 14:09:55;;;;;;;220.45;207.15;;;;;;;;;;6161587;23;20080;-95
2023/07/31 14:12:21;;;;;;;290.58;273.40;;;;;;;;;;6162424;23;20064;-92
2023/07/31 14:14:47;;;;;;;250.80;235.77;;;;;;;;;;6157617;23;20005;-94
2023/07/31 14:17:14;;;;;;;266.73;250.82;;;;;;;;;;6162089;23;20761;-94
2023/07/31 14:19:40;;;;;;;312.27;293.48;;;;;;;;;;6161745;23;20001;-93
2023/07/31 14:22:06;;;;;;;298.13;280.00;;;;;;;;;;6161322;23;20009;-94
2023/07/31 14:24:36;;;;;;;291.70;274.45;;;;;;;;;;6161508;23;20374;-95
2023/07/31 14:30:16;;;;;;;275.83;259.17;;;;;;;;;;6189029;23;20505;-96
2023/07/31 14:32:43;;;;;;;263.15;246.95;;;;;;;;;;6162943;23;20017;-95
2023/07/31 14:46:11;;;;;;;282.48;265.40;;;;;;;;;;6206909;22;20063;-94
2023/07/31 14:51:49;;;;;;;276.50;259.38;;;;;;;;;;6075259;23;20019;-94
2023/07/31 15:00:57;;;;;;;;;;;;;;;;;;;;;
2023/07/31 15:06:07;;;;;;;277.08;259.73;;;;;;;;;;6216337;22;20035;-93
2023/07/31 15:08:46;;;;;;;331.02;310.95;;;;;;;;;;6190942;23;20870;-94
2023/07/31 15:11:12;;;;;;;308.60;289.52;;;;;;;;;;6190903;23;20069;-94
2023/07/31 15:22:34;;;;;;;351.75;329.63;;;;;;;;;;6197693;22;21126;-94
2023/07/31 15:33:46;;;;;;;328.75;307.38;;;;;;;;;;6225816;23;20059;-95
2023/07/31 15:45:38;;;;;;;328.70;308.70;;;;;;;;;;6230175;23;20032;-91
2023/07/31 15:48:11;;;;;;;333.77;313.35;;;;;;;;;;6187257;23;20028;-88
2023/07/31 15:59:36;;;;;;;311.02;292.25;;;;;;;;;;6097771;23;20013;-91
2023/07/31 16:02:02;;;;;;;162.02;152.20;;;;;;;;;;6073886;23;20119;-89
2023/07/31 16:04:28;;;;;;;110.10;103.53;;;;;;;;;;6074250;23;20006;-89
2023/07/31 16:06:54;;;;;;;293.25;275.58;;;;;;;;;;6121714;23;20016;-91
2023/07/31 16:09:23;;;;;;;325.27;305.08;;;;;;;;;;6195793;23;20054;-91
2023/07/31 16:15:13;;;;;;;328.25;307.58;;;;;;;;;;6110258;23;20468;-93
2023/07/31 16:17:48;;;;;;;318.25;298.92;;;;;;;;;;6201352;23;20001;-90
2023/07/31 16:20:18;;;;;;;311.48;292.35;;;;;;;;;;6198590;23;19985;-91
2023/07/31 16:22:58;;;;;;;311.10;292.23;;;;;;;;;;6193049;23;20019;-90
2023/07/31 16:25:52;;;;;;;357.88;335.20;;;;;;;;;;6194435;23;20005;-90
2023/07/31 16:28:43;;;;;;;310.75;291.33;;;;;;;;;;6178494;23;20088;-91
2023/07/31 16:31:15;;;;;;;378.02;351.23;;;;;;;;;;6193810;23;20023;-90
2023/07/31 16:33:41;;;;;;;;;;;;;;;;;;6222564;23;20000;-91
2023/07/31 16:36:14;;;;;;;349.77;327.15;;;;;;;;;;6192643;23;19900;-90
2023/07/31 16:38:43;;;;;;;366.00;342.13;;;;;;;;;;6198475;23;20007;-90
2023/07/31 16:41:12;;;;;;;385.38;360.73;;;;;;;;;;6196254;23;20004;-91
2023/07/31 17:04:59;;;;;;;401.65;375.27;;;;;;;;;;6220465;23;20015;-89
2023/07/31 17:07:28;;;;;;;372.45;348.33;;;;;;;;;;6193611;23;20087;-89
2023/07/31 17:10:02;;;;;;;386.92;361.65;;;;;;;;;;6192237;23;20058;-89
2023/07/31 17:12:33;;;;;;;353.88;332.00;;;;;;;;;;6155980;23;20072;-89
2023/07/31 17:15:11;;;;;;;352.50;330.10;;;;;;;;;;6132982;23;20002;-92
2023/07/31 17:17:49;;;;;;;396.02;370.63;;;;;;;;;;6139541;23;20061;-90
2023/07/31 17:20:18;;;;;;;410.73;384.00;;;;;;;;;;6169866;23;20052;-90
2023/07/31 17:22:47;;;;;;;398.70;372.55;;;;;;;;;;6164592;23;20005;-90
2023/07/31 18:04:30;;;;;;;459.00;428.58;;;;;;;;;;6199345;22;20343;31
2023/07/31 18:10:33;;;;;;;479.80;447.55;;;;;;;;;;6197191;22;20028;31
2023/07/31 18:16:09;;;;;;;;;;;;;;;;;;6198843;23;20075;-96
2023/07/31 18:37:00;;;;;;;298.25;280.23;;;;;;;;;;4588553;27;15121064;-93
2023/07/31 18:48:38;;;;;;;376.95;353.27;;;;;;;;;;5092084;28;20101;-94
2023/07/31 18:51:04;;;;;;;384.70;360.25;;;;;;;;;;5095076;28;20017;-94
2023/07/31 18:53:30;;;;;;;412.45;385.52;;;;;;;;;;5159218;22;20507;-93
2023/07/31 18:56:15;;;;;;;383.60;359.42;;;;;;;;;;5348396;22;20053;-93
2023/07/31 18:58:44;;;;;;;379.17;354.92;;;;;;;;;;5072630;28;20048;-95
2023/07/31 19:41:25;;;;;;;;;;;;;;;;;;;;;
2023/07/31 19:47:08;;;;;;;124.38;116.32;;;;;;;;;;4837099;29;20151;-95
2023/07/31 19:58:28;;;;;;;80.35;75.45;;;;;;;;;;4887823;29;20059;-96
